VPCOH LYTV-UGTB
Flight info
| Callsign | VPCOH |
|---|---|
| Flight time | N/A |
| Altitude | 39000 |
| Route | NIK DCT MODRA DCT ETIDA Q7 IVGOT L744 UDROS UM859 KARDE UN644 ROLIN N644 LAGAS |
| Aircraft | B738/M-SDE2E3FGHIRWXY/LB1 |
Departure
| Time | 2026-05-04 14:22 |
|---|---|
| Airport | Tivat Airport (LYTV) |
Arrival
| Time | N/A |
|---|---|
| Airport | Tbilisi International Airport (UGTB) |
| Time | Latitude | Longitude | Altitude | Speed | Heading |
|---|---|---|---|---|---|
| 2026-05-04 13:29 | 42.41214 | 18.71697 | 34 ft | 0 kts | 169° |
| 2026-05-04 14:12 | 42.41211 | 18.71698 | 46 ft | 2 kts | 169° |
| 2026-05-04 14:12 | 42.41180 | 18.71691 | 45 ft | 5 kts | 189° |
| 2026-05-04 14:12 | 42.41116 | 18.71748 | 42 ft | 6 kts | 139° |
| 2026-05-04 14:13 | 42.41086 | 18.71783 | 45 ft | 6 kts | 139° |
| 2026-05-04 14:13 | 42.41057 | 18.71817 | 45 ft | 6 kts | 139° |
| 2026-05-04 14:13 | 42.41027 | 18.71850 | 43 ft | 5 kts | 145° |
| 2026-05-04 14:13 | 42.40993 | 18.71843 | 42 ft | 5 kts | 218° |
| 2026-05-04 14:14 | 42.40968 | 18.71806 | 45 ft | 5 kts | 227° |
| 2026-05-04 14:14 | 42.40899 | 18.71820 | 44 ft | 8 kts | 140° |
| 2026-05-04 14:14 | 42.40850 | 18.71876 | 44 ft | 10 kts | 140° |
| 2026-05-04 14:15 | 42.40745 | 18.71999 | 44 ft | 10 kts | 139° |
| 2026-05-04 14:15 | 42.40638 | 18.72127 | 42 ft | 13 kts | 138° |
| 2026-05-04 14:16 | 42.40502 | 18.72286 | 44 ft | 13 kts | 138° |
| 2026-05-04 14:16 | 42.40435 | 18.72368 | 42 ft | 13 kts | 138° |
| 2026-05-04 14:17 | 42.40299 | 18.72528 | 47 ft | 13 kts | 139° |
| 2026-05-04 14:17 | 42.40234 | 18.72604 | 44 ft | 12 kts | 139° |
| 2026-05-04 14:17 | 42.40109 | 18.72752 | 45 ft | 12 kts | 139° |
| 2026-05-04 14:18 | 42.40105 | 18.72756 | 43 ft | 12 kts | 139° |
| 2026-05-04 14:18 | 42.40083 | 18.72782 | 43 ft | 12 kts | 139° |
| 2026-05-04 14:19 | 42.39958 | 18.72927 | 40 ft | 12 kts | 141° |
| 2026-05-04 14:19 | 42.39897 | 18.72997 | 44 ft | 11 kts | 138° |
| 2026-05-04 14:19 | 42.39840 | 18.73067 | 43 ft | 11 kts | 137° |
| 2026-05-04 14:19 | 42.39785 | 18.73134 | 41 ft | 11 kts | 138° |
| 2026-05-04 14:20 | 42.39730 | 18.73200 | 46 ft | 10 kts | 139° |
| 2026-05-04 14:20 | 42.39671 | 18.73251 | 42 ft | 10 kts | 169° |
| 2026-05-04 14:20 | 42.39625 | 18.73298 | 44 ft | 10 kts | 72° |
| 2026-05-04 14:21 | 42.39677 | 18.73265 | 44 ft | 0 kts | 319° |
| 2026-05-04 14:21 | 42.39682 | 18.73259 | 44 ft | 5 kts | 319° |
| 2026-05-04 14:21 | 42.39898 | 18.73003 | 44 ft | 83 kts | 319° |
| 2026-05-04 14:21 | 42.40509 | 18.72278 | 44 ft | 151 kts | 319° |
| 2026-05-04 14:22 | 42.41387 | 18.71238 | 537 ft | 171 kts | 317° |
| 2026-05-04 14:22 | 42.42287 | 18.70177 | 1454 ft | 172 kts | 317° |
| 2026-05-04 14:22 | 42.43237 | 18.69075 | 2149 ft | 192 kts | 317° |
| 2026-05-04 14:22 | 42.44324 | 18.67799 | 2533 ft | 218 kts | 318° |
| 2026-05-04 14:23 | 42.47004 | 18.65718 | 3884 ft | 238 kts | 356° |
| 2026-05-04 14:23 | 42.48681 | 18.65930 | 4716 ft | 245 kts | 10° |
| 2026-05-04 14:23 | 42.50361 | 18.66380 | 5665 ft | 246 kts | 11° |
| 2026-05-04 14:24 | 42.52034 | 18.66830 | 6687 ft | 245 kts | 11° |
| 2026-05-04 14:24 | 42.53704 | 18.67268 | 7666 ft | 245 kts | 11° |
| 2026-05-04 14:24 | 42.55386 | 18.67744 | 8548 ft | 248 kts | 16° |
| 2026-05-04 14:24 | 42.57052 | 18.68578 | 9081 ft | 267 kts | 23° |
| 2026-05-04 14:25 | 42.58780 | 18.69591 | 9931 ft | 272 kts | 24° |
| 2026-05-04 14:25 | 42.62316 | 18.71608 | 11592 ft | 281 kts | 22° |
| 2026-05-04 14:25 | 42.64138 | 18.72621 | 12481 ft | 284 kts | 22° |
| 2026-05-04 14:26 | 42.65931 | 18.73708 | 13308 ft | 289 kts | 32° |
| 2026-05-04 14:26 | 42.67441 | 18.75529 | 14214 ft | 294 kts | 47° |
| 2026-05-04 14:26 | 42.68763 | 18.77672 | 15034 ft | 298 kts | 49° |
| 2026-05-04 14:26 | 42.70073 | 18.79876 | 15880 ft | 301 kts | 49° |
| 2026-05-04 14:27 | 42.71397 | 18.82103 | 16742 ft | 305 kts | 49° |
| 2026-05-04 14:27 | 42.72752 | 18.84359 | 17576 ft | 309 kts | 48° |
| 2026-05-04 14:27 | 42.74129 | 18.86632 | 18398 ft | 314 kts | 47° |
| 2026-05-04 14:27 | 42.75529 | 18.88935 | 19125 ft | 317 kts | 47° |
| 2026-05-04 14:28 | 42.76939 | 18.91255 | 19886 ft | 319 kts | 47° |
| 2026-05-04 14:28 | 42.78237 | 18.93761 | 20470 ft | 332 kts | 58° |
| 2026-05-04 14:28 | 42.79302 | 18.96619 | 20610 ft | 354 kts | 61° |
| 2026-05-04 14:28 | 42.80373 | 18.99753 | 20753 ft | 375 kts | 62° |
| 2026-05-04 14:29 | 42.82638 | 19.06492 | 21264 ft | 403 kts | 62° |
| 2026-05-04 14:29 | 42.85023 | 19.13473 | 22520 ft | 408 kts | 62° |
| 2026-05-04 14:30 | 42.86234 | 19.16978 | 23114 ft | 411 kts | 62° |
| 2026-05-04 14:30 | 42.87460 | 19.20514 | 23662 ft | 415 kts | 61° |
| 2026-05-04 14:30 | 42.89950 | 19.27683 | 24591 ft | 421 kts | 61° |
| 2026-05-04 14:31 | 42.91206 | 19.31308 | 25078 ft | 424 kts | 61° |
| 2026-05-04 14:31 | 42.93744 | 19.38645 | 25917 ft | 431 kts | 61° |
| 2026-05-04 14:32 | 42.96294 | 19.46042 | 26769 ft | 436 kts | 61° |
| 2026-05-04 14:32 | 42.97587 | 19.49802 | 27184 ft | 439 kts | 61° |
| 2026-05-04 14:32 | 42.98894 | 19.53603 | 27579 ft | 442 kts | 61° |
| 2026-05-04 14:32 | 43.00200 | 19.57409 | 27975 ft | 444 kts | 60° |
| 2026-05-04 14:33 | 43.01410 | 19.61336 | 28291 ft | 451 kts | 65° |
| 2026-05-04 14:33 | 43.02477 | 19.65395 | 28708 ft | 453 kts | 66° |
| 2026-05-04 14:33 | 43.03502 | 19.69492 | 29118 ft | 455 kts | 67° |
| 2026-05-04 14:33 | 43.04515 | 19.73605 | 29455 ft | 458 kts | 67° |
| 2026-05-04 14:34 | 43.05524 | 19.77705 | 29770 ft | 461 kts | 67° |
| 2026-05-04 14:34 | 43.06557 | 19.81870 | 30146 ft | 462 kts | 67° |
| 2026-05-04 14:34 | 43.07594 | 19.86034 | 30632 ft | 460 kts | 66° |
| 2026-05-04 14:34 | 43.08625 | 19.90157 | 31159 ft | 457 kts | 66° |
| 2026-05-04 14:35 | 43.09654 | 19.94263 | 31580 ft | 456 kts | 66° |
| 2026-05-04 14:35 | 43.10686 | 19.98376 | 31925 ft | 456 kts | 66° |
| 2026-05-04 14:35 | 43.11715 | 20.02478 | 32291 ft | 456 kts | 66° |
| 2026-05-04 14:35 | 43.12728 | 20.06522 | 32700 ft | 454 kts | 66° |
| 2026-05-04 14:36 | 43.13736 | 20.10557 | 33120 ft | 452 kts | 66° |
| 2026-05-04 14:36 | 43.14764 | 20.14681 | 33530 ft | 451 kts | 66° |
| 2026-05-04 14:36 | 43.15779 | 20.18759 | 33921 ft | 451 kts | 66° |
| 2026-05-04 14:36 | 43.16779 | 20.22783 | 34290 ft | 449 kts | 67° |
| 2026-05-04 14:37 | 43.17795 | 20.26882 | 34630 ft | 448 kts | 67° |
| 2026-05-04 14:37 | 43.18796 | 20.30924 | 34905 ft | 449 kts | 67° |
| 2026-05-04 14:37 | 43.19792 | 20.34954 | 35186 ft | 449 kts | 67° |
| 2026-05-04 14:37 | 43.20796 | 20.39026 | 35527 ft | 447 kts | 67° |
| 2026-05-04 14:38 | 43.21779 | 20.43018 | 35821 ft | 447 kts | 67° |
| 2026-05-04 14:38 | 43.22771 | 20.47052 | 36074 ft | 447 kts | 67° |
| 2026-05-04 14:38 | 43.23763 | 20.51093 | 36367 ft | 447 kts | 68° |
| 2026-05-04 14:38 | 43.24754 | 20.55141 | 36673 ft | 446 kts | 68° |
| 2026-05-04 14:39 | 43.25741 | 20.59177 | 36955 ft | 446 kts | 68° |
| 2026-05-04 14:39 | 43.26727 | 20.63218 | 37228 ft | 446 kts | 68° |
| 2026-05-04 14:39 | 43.27712 | 20.67259 | 37504 ft | 446 kts | 68° |
| 2026-05-04 14:40 | 43.29674 | 20.75335 | 37986 ft | 446 kts | 68° |
| 2026-05-04 14:40 | 43.30655 | 20.79377 | 38221 ft | 446 kts | 68° |
| 2026-05-04 14:40 | 43.31634 | 20.83426 | 38516 ft | 445 kts | 68° |
| 2026-05-04 14:40 | 43.32608 | 20.87460 | 38755 ft | 445 kts | 69° |
| 2026-05-04 14:41 | 43.33582 | 20.91497 | 38910 ft | 446 kts | 69° |
| 2026-05-04 14:41 | 43.34556 | 20.95546 | 39051 ft | 447 kts | 69° |
| 2026-05-04 14:42 | 43.38435 | 21.11737 | 39118 ft | 448 kts | 69° |
| 2026-05-04 14:42 | 43.40380 | 21.19903 | 39113 ft | 448 kts | 69° |
| 2026-05-04 14:43 | 43.42303 | 21.28003 | 39113 ft | 448 kts | 69° |
| 2026-05-04 14:43 | 43.44235 | 21.36168 | 39108 ft | 449 kts | 69° |
| 2026-05-04 14:44 | 43.46159 | 21.44333 | 39110 ft | 449 kts | 69° |
| 2026-05-04 14:44 | 43.48082 | 21.52522 | 39103 ft | 449 kts | 70° |
| 2026-05-04 14:45 | 43.49995 | 21.60699 | 39101 ft | 448 kts | 70° |
| 2026-05-04 14:45 | 43.51900 | 21.68874 | 39105 ft | 448 kts | 70° |
| 2026-05-04 14:46 | 43.53786 | 21.76992 | 39103 ft | 447 kts | 70° |
| 2026-05-04 14:46 | 43.55687 | 21.85209 | 39101 ft | 447 kts | 70° |
| 2026-05-04 14:47 | 43.57556 | 21.93315 | 39100 ft | 446 kts | 70° |
| 2026-05-04 14:47 | 43.59436 | 22.01502 | 39098 ft | 447 kts | 70° |
| 2026-05-04 14:48 | 43.61306 | 22.09675 | 39096 ft | 447 kts | 70° |
| 2026-05-04 14:48 | 43.63174 | 22.17870 | 39084 ft | 447 kts | 70° |
| 2026-05-04 14:49 | 43.65030 | 22.26041 | 39085 ft | 447 kts | 70° |
| 2026-05-04 14:49 | 43.66886 | 22.34240 | 39089 ft | 447 kts | 70° |
| 2026-05-04 14:50 | 43.68299 | 22.42628 | 39079 ft | 451 kts | 83° |
| 2026-05-04 14:50 | 43.68076 | 22.51267 | 39085 ft | 454 kts | 93° |
| 2026-05-04 14:51 | 43.67413 | 22.59957 | 39085 ft | 454 kts | 94° |
| 2026-05-04 14:51 | 43.66750 | 22.68645 | 39081 ft | 455 kts | 94° |
| 2026-05-04 14:52 | 43.66119 | 22.77335 | 39075 ft | 455 kts | 94° |
| 2026-05-04 14:52 | 43.65503 | 22.85962 | 39067 ft | 454 kts | 94° |
| 2026-05-04 14:53 | 43.64881 | 22.94652 | 39065 ft | 453 kts | 94° |
| 2026-05-04 14:53 | 43.64254 | 23.03304 | 39071 ft | 453 kts | 94° |
| 2026-05-04 14:54 | 43.63621 | 23.11944 | 39073 ft | 452 kts | 94° |
| 2026-05-04 14:54 | 43.62982 | 23.20570 | 39066 ft | 451 kts | 94° |
| 2026-05-04 14:55 | 43.62447 | 23.27715 | 39065 ft | 450 kts | 94° |
| 2026-05-04 14:55 | 43.61692 | 23.37698 | 39059 ft | 449 kts | 94° |
| 2026-05-04 14:56 | 43.61145 | 23.44869 | 39062 ft | 448 kts | 94° |
| 2026-05-04 14:56 | 43.60493 | 23.53334 | 39068 ft | 448 kts | 94° |
| 2026-05-04 14:57 | 43.59826 | 23.61907 | 39071 ft | 448 kts | 94° |
| 2026-05-04 14:57 | 43.59152 | 23.70484 | 39072 ft | 450 kts | 94° |
| 2026-05-04 14:58 | 43.58470 | 23.79083 | 39072 ft | 451 kts | 94° |
| 2026-05-04 14:58 | 43.57781 | 23.87689 | 39074 ft | 452 kts | 94° |
| 2026-05-04 14:59 | 43.57087 | 23.96279 | 39085 ft | 454 kts | 94° |
| 2026-05-04 15:00 | 43.56021 | 24.09303 | 39080 ft | 456 kts | 95° |
| 2026-05-04 15:00 | 43.55300 | 24.18004 | 39085 ft | 457 kts | 95° |
| 2026-05-04 15:01 | 43.54210 | 24.31020 | 39083 ft | 457 kts | 95° |
| 2026-05-04 15:01 | 43.53473 | 24.39715 | 39085 ft | 456 kts | 95° |
| 2026-05-04 15:02 | 43.52730 | 24.48397 | 39087 ft | 455 kts | 95° |
| 2026-05-04 15:02 | 43.51983 | 24.57044 | 39086 ft | 454 kts | 95° |
| 2026-05-04 15:03 | 43.51233 | 24.65668 | 39089 ft | 453 kts | 95° |
| 2026-05-04 15:03 | 43.50476 | 24.74280 | 39079 ft | 452 kts | 95° |
| 2026-05-04 15:04 | 43.49720 | 24.82814 | 39076 ft | 451 kts | 95° |
| 2026-05-04 15:04 | 43.48955 | 24.91375 | 39069 ft | 449 kts | 95° |
| 2026-05-04 15:05 | 43.48186 | 24.99901 | 39071 ft | 448 kts | 95° |
| 2026-05-04 15:05 | 43.47412 | 25.08416 | 39060 ft | 448 kts | 96° |
| 2026-05-04 15:06 | 43.46632 | 25.16927 | 39063 ft | 447 kts | 96° |
| 2026-05-04 15:07 | 43.45454 | 25.29635 | 39057 ft | 448 kts | 96° |
| 2026-05-04 15:07 | 43.44658 | 25.38143 | 39058 ft | 448 kts | 96° |
| 2026-05-04 15:08 | 43.43856 | 25.46643 | 39053 ft | 448 kts | 96° |
| 2026-05-04 15:08 | 43.43051 | 25.55106 | 39053 ft | 449 kts | 96° |
| 2026-05-04 15:09 | 43.42234 | 25.63627 | 39047 ft | 450 kts | 96° |
| 2026-05-04 15:09 | 43.41408 | 25.72171 | 39045 ft | 450 kts | 96° |
| 2026-05-04 15:10 | 43.40155 | 25.85001 | 39042 ft | 451 kts | 96° |
| 2026-05-04 15:11 | 43.38888 | 25.97836 | 39042 ft | 452 kts | 96° |
| 2026-05-04 15:11 | 43.38036 | 26.06373 | 39041 ft | 453 kts | 96° |
| 2026-05-04 15:12 | 43.37173 | 26.14961 | 39037 ft | 453 kts | 96° |
| 2026-05-04 15:12 | 43.36304 | 26.23531 | 39039 ft | 452 kts | 96° |
| 2026-05-04 15:13 | 43.35430 | 26.32102 | 39039 ft | 452 kts | 96° |
| 2026-05-04 15:13 | 43.34556 | 26.40594 | 39036 ft | 451 kts | 96° |
| 2026-05-04 15:14 | 43.33672 | 26.49128 | 39032 ft | 451 kts | 96° |
| 2026-05-04 15:14 | 43.32781 | 26.57648 | 39033 ft | 449 kts | 96° |
| 2026-05-04 15:15 | 43.31890 | 26.66123 | 39026 ft | 448 kts | 97° |
| 2026-05-04 15:15 | 43.31001 | 26.74532 | 39033 ft | 447 kts | 97° |
| 2026-05-04 15:16 | 43.29649 | 26.87168 | 39029 ft | 445 kts | 97° |
| 2026-05-04 15:17 | 43.28286 | 26.99791 | 39029 ft | 445 kts | 97° |
| 2026-05-04 15:17 | 43.26912 | 27.12386 | 39024 ft | 445 kts | 97° |
| 2026-05-04 15:18 | 43.25988 | 27.20776 | 39025 ft | 445 kts | 97° |
| 2026-05-04 15:19 | 43.24593 | 27.33330 | 39029 ft | 446 kts | 97° |
| 2026-05-04 15:19 | 43.23176 | 27.45953 | 39023 ft | 447 kts | 97° |
| 2026-05-04 15:20 | 43.22223 | 27.54376 | 39027 ft | 447 kts | 97° |
| 2026-05-04 15:20 | 43.21260 | 27.62824 | 39023 ft | 448 kts | 97° |
| 2026-05-04 15:21 | 43.20292 | 27.71261 | 39026 ft | 449 kts | 97° |
| 2026-05-04 15:22 | 43.18831 | 27.83886 | 39020 ft | 449 kts | 97° |
| 2026-05-04 15:22 | 43.17349 | 27.96568 | 39019 ft | 449 kts | 97° |
| 2026-05-04 15:23 | 43.16354 | 28.05014 | 39023 ft | 449 kts | 98° |
| 2026-05-04 15:23 | 43.15353 | 28.13454 | 39026 ft | 449 kts | 98° |
| 2026-05-04 15:24 | 43.13342 | 28.30250 | 39027 ft | 447 kts | 98° |
| 2026-05-04 15:25 | 43.12326 | 28.38653 | 39028 ft | 447 kts | 98° |
| 2026-05-04 15:26 | 43.10795 | 28.51232 | 39029 ft | 446 kts | 98° |
| 2026-05-04 15:26 | 43.08768 | 28.63659 | 39023 ft | 446 kts | 102° |
| 2026-05-04 15:27 | 43.06501 | 28.75926 | 39017 ft | 445 kts | 102° |
| 2026-05-04 15:28 | 43.04352 | 28.88273 | 39016 ft | 444 kts | 101° |
| 2026-05-04 15:29 | 43.02271 | 29.00611 | 39011 ft | 444 kts | 101° |
| 2026-05-04 15:30 | 42.97330 | 29.29330 | 39006 ft | 444 kts | 101° |
| 2026-05-04 15:31 | 42.95190 | 29.41608 | 38995 ft | 445 kts | 101° |
| 2026-05-04 15:32 | 42.91577 | 29.62169 | 38984 ft | 445 kts | 101° |
| 2026-05-04 15:34 | 42.87931 | 29.82675 | 38971 ft | 446 kts | 101° |
| 2026-05-04 15:34 | 42.85718 | 29.94998 | 38971 ft | 445 kts | 101° |
| 2026-05-04 15:35 | 42.83509 | 30.07241 | 38963 ft | 445 kts | 103° |
| 2026-05-04 15:36 | 42.81273 | 30.19536 | 38954 ft | 446 kts | 102° |
| 2026-05-04 15:36 | 42.79772 | 30.27752 | 38943 ft | 446 kts | 101° |
| 2026-05-04 15:37 | 42.78265 | 30.35956 | 38951 ft | 446 kts | 100° |
| 2026-05-04 15:37 | 42.76753 | 30.44168 | 38939 ft | 447 kts | 101° |
| 2026-05-04 15:38 | 42.75245 | 30.52325 | 38949 ft | 447 kts | 101° |
| 2026-05-04 15:38 | 42.73759 | 30.60551 | 38921 ft | 447 kts | 99° |
| 2026-05-04 15:39 | 42.72829 | 30.68905 | 38918 ft | 446 kts | 94° |
| 2026-05-04 15:40 | 42.71649 | 30.81418 | 38929 ft | 447 kts | 94° |
| 2026-05-04 15:40 | 42.70823 | 30.89804 | 38920 ft | 447 kts | 97° |
| 2026-05-04 15:41 | 42.69965 | 30.98197 | 38910 ft | 448 kts | 95° |
| 2026-05-04 15:41 | 42.69092 | 31.06545 | 38907 ft | 448 kts | 96° |
| 2026-05-04 15:42 | 42.68210 | 31.14950 | 38904 ft | 448 kts | 96° |
| 2026-05-04 15:42 | 42.67325 | 31.23351 | 38901 ft | 448 kts | 95° |
| 2026-05-04 15:43 | 42.66432 | 31.31745 | 38901 ft | 448 kts | 97° |
| 2026-05-04 15:43 | 42.65540 | 31.40078 | 38891 ft | 448 kts | 96° |
| 2026-05-04 15:44 | 42.64637 | 31.48462 | 38890 ft | 448 kts | 97° |
| 2026-05-04 15:44 | 42.63730 | 31.56831 | 38889 ft | 448 kts | 96° |
| 2026-05-04 15:45 | 42.62815 | 31.65193 | 38883 ft | 448 kts | 97° |
| 2026-05-04 15:45 | 42.61896 | 31.73556 | 38883 ft | 448 kts | 97° |
| 2026-05-04 15:46 | 42.61125 | 31.80528 | 38878 ft | 448 kts | 97° |
| 2026-05-04 15:46 | 42.60197 | 31.88856 | 38874 ft | 448 kts | 97° |
| 2026-05-04 15:47 | 42.59258 | 31.97242 | 38879 ft | 449 kts | 97° |
| 2026-05-04 15:47 | 42.58328 | 32.05574 | 38877 ft | 448 kts | 97° |
| 2026-05-04 15:48 | 42.57387 | 32.13945 | 38874 ft | 448 kts | 97° |
| 2026-05-04 15:48 | 42.55942 | 32.26486 | 38880 ft | 447 kts | 97° |
| 2026-05-04 15:49 | 42.54983 | 32.34771 | 38879 ft | 447 kts | 97° |
| 2026-05-04 15:49 | 42.54016 | 32.43082 | 38882 ft | 446 kts | 98° |
| 2026-05-04 15:50 | 42.53044 | 32.51386 | 38878 ft | 445 kts | 98° |
| 2026-05-04 15:50 | 42.52066 | 32.59681 | 38878 ft | 445 kts | 98° |
| 2026-05-04 15:51 | 42.51084 | 32.67963 | 38877 ft | 444 kts | 98° |
| 2026-05-04 15:51 | 42.50099 | 32.76214 | 38894 ft | 444 kts | 98° |
| 2026-05-04 15:52 | 42.49113 | 32.84426 | 38883 ft | 443 kts | 98° |
| 2026-05-04 15:52 | 42.48117 | 32.92670 | 38881 ft | 443 kts | 98° |
| 2026-05-04 15:53 | 42.47117 | 33.00899 | 38883 ft | 442 kts | 98° |
| 2026-05-04 15:53 | 42.46113 | 33.09113 | 38887 ft | 442 kts | 98° |
| 2026-05-04 15:54 | 42.45108 | 33.17265 | 38891 ft | 441 kts | 98° |
| 2026-05-04 15:54 | 42.44090 | 33.25458 | 38889 ft | 441 kts | 98° |
| 2026-05-04 15:55 | 42.43068 | 33.33650 | 38887 ft | 441 kts | 98° |
| 2026-05-04 15:55 | 42.42042 | 33.41832 | 38888 ft | 441 kts | 98° |
| 2026-05-04 15:56 | 42.41005 | 33.50033 | 38887 ft | 441 kts | 99° |
| 2026-05-04 15:56 | 42.39971 | 33.58173 | 38888 ft | 441 kts | 99° |
| 2026-05-04 15:57 | 42.38924 | 33.66372 | 38890 ft | 442 kts | 99° |
| 2026-05-04 15:57 | 42.37876 | 33.74535 | 38887 ft | 442 kts | 99° |
| 2026-05-04 15:58 | 42.36817 | 33.82742 | 38892 ft | 443 kts | 99° |
| 2026-05-04 15:58 | 42.35749 | 33.90967 | 38892 ft | 443 kts | 99° |
| 2026-05-04 15:59 | 42.34678 | 33.99178 | 38894 ft | 444 kts | 99° |
| 2026-05-04 15:59 | 42.33606 | 34.07358 | 38894 ft | 445 kts | 99° |
| 2026-05-04 16:00 | 42.32522 | 34.15592 | 38896 ft | 445 kts | 99° |
| 2026-05-04 16:00 | 42.31428 | 34.23851 | 38896 ft | 446 kts | 99° |
| 2026-05-04 16:01 | 42.30329 | 34.32102 | 38897 ft | 447 kts | 100° |
| 2026-05-04 16:01 | 42.29226 | 34.40335 | 38901 ft | 447 kts | 100° |
| 2026-05-04 16:02 | 42.28113 | 34.48583 | 38902 ft | 446 kts | 101° |
| 2026-05-04 16:03 | 42.26432 | 34.60925 | 38903 ft | 445 kts | 101° |
| 2026-05-04 16:03 | 42.25308 | 34.69143 | 38896 ft | 445 kts | 100° |
| 2026-05-04 16:04 | 42.24180 | 34.77346 | 38897 ft | 444 kts | 99° |
| 2026-05-04 16:04 | 42.22470 | 34.89646 | 38897 ft | 443 kts | 99° |
| 2026-05-04 16:05 | 42.21332 | 34.97776 | 38897 ft | 443 kts | 101° |
| 2026-05-04 16:06 | 42.19601 | 35.10052 | 38895 ft | 444 kts | 101° |
| 2026-05-04 16:07 | 42.17273 | 35.26431 | 38901 ft | 445 kts | 101° |
| 2026-05-04 16:08 | 42.14919 | 35.42827 | 38902 ft | 448 kts | 100° |
| 2026-05-04 16:09 | 42.11916 | 35.63499 | 38900 ft | 452 kts | 101° |
| 2026-05-04 16:10 | 42.09464 | 35.80206 | 38896 ft | 455 kts | 102° |
| 2026-05-04 16:11 | 42.06985 | 35.96908 | 38899 ft | 456 kts | 102° |
| 2026-05-04 16:12 | 42.03216 | 36.21980 | 38900 ft | 456 kts | 103° |
| 2026-05-04 16:13 | 42.00666 | 36.38721 | 38898 ft | 456 kts | 103° |
| 2026-05-04 16:14 | 41.98097 | 36.55411 | 38900 ft | 457 kts | 103° |
| 2026-05-04 16:16 | 41.94849 | 36.76279 | 38893 ft | 457 kts | 104° |
| 2026-05-04 16:17 | 41.91554 | 36.97199 | 38893 ft | 458 kts | 104° |
| 2026-05-04 16:18 | 41.90135 | 37.14206 | 38892 ft | 463 kts | 93° |
| 2026-05-04 16:19 | 41.89928 | 37.35822 | 38890 ft | 464 kts | 94° |
| 2026-05-04 16:20 | 41.89560 | 37.57505 | 38891 ft | 465 kts | 94° |
| 2026-05-04 16:22 | 41.89149 | 37.79247 | 38884 ft | 466 kts | 95° |
| 2026-05-04 16:23 | 41.88604 | 38.05304 | 38887 ft | 466 kts | 95° |
| 2026-05-04 16:25 | 41.87997 | 38.31464 | 38879 ft | 467 kts | 95° |
| 2026-05-04 16:26 | 41.87213 | 38.61999 | 38882 ft | 470 kts | 95° |
| 2026-05-04 16:28 | 41.86600 | 38.83929 | 38875 ft | 471 kts | 96° |
| 2026-05-04 16:29 | 41.85674 | 39.14607 | 38915 ft | 464 kts | 95° |
| 2026-05-04 16:31 | 41.84977 | 39.36048 | 38874 ft | 459 kts | 95° |
| 2026-05-04 16:32 | 41.84141 | 39.60285 | 38876 ft | 461 kts | 96° |
| 2026-05-04 16:33 | 41.83518 | 39.77487 | 38870 ft | 464 kts | 96° |
| 2026-05-04 16:34 | 41.83031 | 39.90470 | 38869 ft | 465 kts | 96° |
| 2026-05-04 16:35 | 41.82013 | 40.16478 | 38863 ft | 466 kts | 96° |
| 2026-05-04 16:36 | 41.81476 | 40.29525 | 38865 ft | 466 kts | 96° |
| 2026-05-04 16:37 | 41.80930 | 40.42463 | 38869 ft | 465 kts | 97° |
| 2026-05-04 16:38 | 41.80181 | 40.59708 | 38865 ft | 463 kts | 97° |
| 2026-05-04 16:39 | 41.79164 | 40.81233 | 38863 ft | 462 kts | 97° |
| 2026-05-04 16:40 | 41.78303 | 40.98393 | 38861 ft | 461 kts | 98° |
| 2026-05-04 16:41 | 41.77200 | 41.19760 | 38860 ft | 461 kts | 98° |
| 2026-05-04 16:43 | 41.76058 | 41.41121 | 38857 ft | 461 kts | 98° |
| 2026-05-04 16:43 | 41.75352 | 41.53977 | 38856 ft | 461 kts | 98° |
| 2026-05-04 16:45 | 41.73897 | 41.79657 | 38858 ft | 462 kts | 98° |
| 2026-05-04 16:46 | 41.72639 | 42.01105 | 38847 ft | 461 kts | 98° |
| 2026-05-04 16:47 | 41.71604 | 42.18223 | 38868 ft | 462 kts | 99° |
| 2026-05-04 16:48 | 41.70540 | 42.35350 | 38866 ft | 464 kts | 99° |
| 2026-05-04 16:49 | 41.69444 | 42.52583 | 38852 ft | 465 kts | 99° |
| 2026-05-04 16:50 | 41.68325 | 42.69792 | 38855 ft | 465 kts | 99° |
| 2026-05-04 16:51 | 41.67472 | 42.82671 | 38851 ft | 465 kts | 99° |
| 2026-05-04 16:51 | 41.66886 | 42.91348 | 37904 ft | 468 kts | 99° |
| 2026-05-04 16:52 | 41.66299 | 42.99942 | 36553 ft | 464 kts | 100° |
| 2026-05-04 16:52 | 41.66003 | 43.04232 | 35868 ft | 463 kts | 100° |
| 2026-05-04 16:53 | 41.65406 | 43.12818 | 34373 ft | 464 kts | 101° |
| 2026-05-04 16:53 | 41.64494 | 43.25759 | 31708 ft | 465 kts | 102° |
| 2026-05-04 16:54 | 41.64190 | 43.30009 | 30815 ft | 466 kts | 103° |
| 2026-05-04 16:55 | 41.62971 | 43.47004 | 27749 ft | 444 kts | 102° |
| 2026-05-04 16:55 | 41.62379 | 43.55115 | 26412 ft | 432 kts | 102° |
| 2026-05-04 16:56 | 41.61800 | 43.62986 | 25094 ft | 423 kts | 101° |
| 2026-05-04 16:56 | 41.60939 | 43.74551 | 23169 ft | 411 kts | 101° |
| 2026-05-04 16:57 | 41.60654 | 43.78352 | 22445 ft | 407 kts | 101° |
| 2026-05-04 16:57 | 41.60097 | 43.85724 | 21195 ft | 396 kts | 101° |
| 2026-05-04 16:58 | 41.59271 | 43.96535 | 19341 ft | 384 kts | 101° |
| 2026-05-04 16:58 | 41.58999 | 44.00067 | 18747 ft | 380 kts | 101° |
| 2026-05-04 16:59 | 41.58458 | 44.07042 | 17501 ft | 374 kts | 100° |